• Join FlightAware (Why Join?)
  • Login
  • US Flag 
06:08PM EDT


 

Airport Tracker/Info


-or-


 

Live Flight TrackerFlight Track Log ✈ UAL4422 ✈ 17-Apr-2013 ✈ KMAF - KIAH

Flight Track Log - Related Links

Times and Time Zones

All times are in EDT time to prevent confusion due to time zone crossing. See the UAL4422 flight status page for this flight to view local times or setup timezone preferences in your user account.

Time Position Orientation Groundspeed Altitude Reporting Facility
EDT Latitude Longitude Course Direction KTS MPH feet Rate Location/Type
06:12PM 31.8488 -101.9129 111° Southeast  Level FlightAware Approximate
06:13PM 31.8172 -101.8183 111° Southeast  Level FlightAware Approximate
06:13PM 31.8067 -102.0358 102° East 265 305 9,100  Level Fort Worth Center
06:14PM 31.7833 -101.7248 113° Southeast  Level FlightAware Approximate
06:14PM 31.7792 -101.9367 108° East 286 329 10,400  Level Fort Worth Center
06:15PM 31.7495 -101.6314 106° East  Level FlightAware Approximate
06:15PM 31.7536 -101.8303 106° East 316 364 11,500  Level Fort Worth Center
06:16PM 31.7191 -101.5099 106° East  Level FlightAware Approximate
06:16PM 31.7239 -101.7239 108° East 331 381 13,500  Level Fort Worth Center
06:17PM 31.6838 -101.3903 109° East  Level FlightAware Approximate
06:17PM 31.6942 -101.6175 108° East 342 394 15,500  Level Fort Worth Center
06:18PM 31.6664 -101.5089 107° East 347 399 17,000 1,080 Climbing Fort Worth Center
06:19PM 31.6367 -101.3953 107° East 352 405 17,700 780 Climbing Fort Worth Center
06:20PM 31.6008 -101.2694 108° East 375 432 18,600 720 Climbing Fort Worth Center
06:21PM 31.5672 -101.1411 107° East 393 452 19,200 600 Climbing Fort Worth Center
06:22PM 31.5292 -101.0081 109° East 417 480 19,800 600 Climbing Fort Worth Center
06:23PM 31.4872 -100.8700 110° East 435 501 20,400 660 Climbing Fort Worth Center
06:24PM 31.4514 -100.7300 107° East 442 509 21,200 900 Climbing Fort Worth Center
06:25PM 31.4131 -100.5922 108° East 447 514 22,200 780 Climbing Fort Worth Center
06:26PM 31.3728 -100.4497 108° East 452 520 22,800 360 Climbing Fort Worth Center
06:27PM 31.3261 -100.3097 111° Southeast 452 520 23,000 120 Climbing Fort Worth Center
06:27PM 31.3053 -100.2478 111° Southeast 469 540 23,000  Level Houston Center
06:28PM 31.2553 -100.1017 112° Southeast 480 552 23,000  Level Houston Center
06:29PM 31.2058 -99.9558 112° Southeast 482 555 23,000  Level Houston Center
06:30PM 31.1656 -99.7786 105° East 474 545 23,000  Level Houston Center
06:31PM 31.1531 -99.6228 95° East 480 552 23,000  Level Houston Center
06:32PM 31.1389 -99.4642 96° East 487 560 23,000  Level Houston Center
06:33PM 31.1264 -99.3089 95° East 482 555 23,000  Level Houston Center
06:34PM 31.1106 -99.1333 96° East 482 555 23,000  Level Houston Center
06:35PM 31.0967 -98.9758 96° East 484 557 23,000  Level Houston Center
06:37PM 31.0831 -98.8194 96° East 480 552 23,000  Level Houston Center
06:38PM 31.0689 -98.6644 96° East 479 551 23,000  Level Houston Center
06:39PM 31.0550 -98.5081 96° East 480 552 23,000  Level Houston Center
06:40PM 31.0400 -98.3522 96° East 482 555 23,000  Level Houston Center
06:41PM 31.0256 -98.1961 96° East 480 552 23,000  Level Houston Center
06:42PM 31.0083 -98.0150 96° East 478 550 23,000  Level Houston Center
06:43PM 30.9931 -97.8589 96° East 481 554 23,000  Level Houston Center
06:44PM 30.9778 -97.7033 96° East 479 551 23,000  Level Houston Center
06:45PM 30.9625 -97.5489 97° East 477 549 23,000  Level Houston Center
06:46PM 30.9467 -97.3944 97° East 476 548 23,000  Level Houston Center
06:47PM 30.9289 -97.2294 97° East 479 551 23,000  Level Houston Center
06:48PM 30.8842 -97.0744 109° East 476 548 23,000 -60 Level Houston Center
06:49PM 30.8347 -96.9342 112° Southeast 468 539 22,900 -900 Descending Houston Center
06:50PM 30.7864 -96.7989 113° Southeast 450 518 21,200 -1,980 Descending Houston Center
06:51PM 30.7431 -96.6772 112° Southeast 409 471 18,900 -2,880 Descending Houston Center
06:52PM 30.6956 -96.5433 112° Southeast 385 443 15,300 -2,880 Descending Houston Center
06:53PM 30.6550 -96.4253 112° Southeast 389 448 13,000 -1,920 Descending Houston Center
06:54PM 30.6353 -96.3756 115° Southeast 393 452 12,500 -1,020 Descending Houston Center
06:54PM 30.6133 -96.3083 111° Southeast 389 448 12,000 -1,020 Descending Houston Center
06:55PM 30.5908 -96.2447 112° Southeast 385 443 11,400 -1,020 Descending Houston Center
06:55PM 30.5725 -96.1936 113° Southeast 383 441 11,000 -900 Descending Houston Center
06:56PM 30.5522 -96.1353 112° Southeast 383 441 10,500 -960 Descending Houston Center
06:56PM 30.5319 -96.0803 113° Southeast 377 434 10,000 -540 Descending Houston Center
06:57PM 30.5086 -96.0189 114° Southeast 361 415 10,000 60 Level Houston Center
06:57PM 30.4953 -95.9814 112° Southeast 358 412 10,100  Climbing Houston Center
06:58PM 30.4725 -95.9164 112° Southeast 330 380 10,000  Descending Houston Center
06:58PM 30.4550 -95.8683 113° Southeast 315 362 10,100 60 Climbing Houston Center
06:59PM 30.4300 -95.8392 135° Southeast 277 319 10,100 -720 Level Houston Center
06:59PM 30.3994 -95.8094 140° Southeast 275 316 9,400 -1,320 Descending Houston Center
07:00PM 30.3728 -95.8069 175° South 243 280 8,900 -1,680 Descending Houston Center
07:00PM 30.3333 -95.8167 192° South 247 284 7,700 -1,980 Descending Houston Center
07:01PM 30.2992 -95.8300 199° South 242 278 6,700 -1,560 Descending Houston Center
07:01PM 30.2725 -95.8397 197° South 233 268 6,100 -720 Descending Houston Center
07:02PM 30.2444 -95.8508 199° South 191 220 6,000 -120 Descending Houston Center
07:02PM 30.2222 -95.8594 199° South 198 228 6,000  Level Houston Center
07:03PM 30.1978 -95.8708 202° Southwest 165 190 6,000 -420 Level Houston Center
07:03PM 30.1775 -95.8794 200° South 175 201 5,600 -900 Descending Houston Center
07:04PM 30.1569 -95.9069 229° Southwest 195 224 5,100 -1,020 Descending Houston Center
07:04PM 30.1408 -95.9342 236° Southwest 181 208 4,600 -780 Descending Houston Center
07:05PM 30.1311 -95.9486 232° Southwest 181 208 4,400 -600 Descending Houston Center
07:06PM 30.1000 -95.9567 193° South 171 197 4,000 -360 Descending Houston Center
07:06PM 30.0797 -95.9617 192° South 166 191 4,000  Level Houston Center
07:07PM 30.0547 -95.9656 188° South 165 190 4,000  Level Houston Center
07:07PM 30.0389 -95.9494 139° Southeast 170 196 4,000  Level Houston Center
07:08PM 30.0231 -95.9258 128° Southeast 172 198 4,000  Level Houston Center
07:08PM 30.0119 -95.9067 124° Southeast 177 204 4,000 -540 Level Houston Center
07:09PM 30.0003 -95.8758 114° Southeast 173 199 3,500 -900 Descending Houston Center
07:09PM 30.0067 -95.8447 77° East 183 211 3,100 -420 Descending Houston Center
07:10PM 30.0067 -95.7964 90° East 171 197 3,000 -60 Descending Houston Center
07:11PM 30.0069 -95.7528 90° East 174 200 3,000  Level Houston Center
07:12PM 30.0067 -95.6969 90° East 173 199 3,000  Level Houston Center
07:13PM 30.0067 -95.6400 90° East 175 201 3,000  Level Houston Center
07:14PM 30.0075 -95.5847 89° East 174 200 3,000 -60 Level Houston Center
07:15PM 30.0064 -95.5297 91° East 173 199 2,900 -540 Descending Houston Center
07:16PM 30.0075 -95.4656 89° East 170 196 1,900 -960 Descending Houston Center